Time;durP1;ratioP1;P1;durP2;ratioP2;P2;SDS_P1;SDS_P2;PMS_P1;PMS_P2;Temp;Humidity;BMP_temperature;BMP_pressure;BME280_temperature;BME280_humidity;BME280_pressure;Samples;Min_cycle;Max_cycle;Signal;HPM_P1;HPM_P2
2021/08/22 00:01:51;;;;;;;2.70;1.67;;;;;;;17.11;90.51;99325.63;2304456;66;20218;-71
2021/08/22 00:04:55;;;;;;;5.59;1.95;;;;;;;17.14;90.88;99319.44;2305650;69;20610;-72
2021/08/22 00:07:57;;;;;;;2.38;1.54;;;;;;;17.17;90.84;99324.56;2306060;69;20179;-72
2021/08/22 00:11:00;;;;;;;3.90;1.86;;;;;;;17.17;90.99;99329.81;2305578;69;20180;-71
2021/08/22 00:14:02;;;;;;;2.71;1.34;;;;;;;17.21;91.02;99328.81;2306609;69;20190;-72
2021/08/22 00:17:05;;;;;;;1.58;1.48;;;;;;;17.22;91.18;99318.25;2304988;66;20218;-71
2021/08/22 00:20:09;;;;;;;2.39;1.64;;;;;;;17.24;91.33;99328.72;2306077;69;20214;-71
2021/08/22 00:23:11;;;;;;;1.98;1.74;;;;;;;17.20;91.17;99340.22;2305583;69;20160;-71
2021/08/22 00:26:14;;;;;;;1.63;1.52;;;;;;;17.16;91.10;99341.22;2305596;69;20226;-71
2021/08/22 00:29:17;;;;;;;3.01;1.86;;;;;;;17.17;91.42;99341.16;2305874;69;20133;-71
2021/08/22 00:32:20;;;;;;;2.29;1.76;;;;;;;17.20;91.48;99358.56;2307271;67;23479;-71
2021/08/22 00:35:26;;;;;;;2.76;2.25;;;;;;;17.24;91.57;99349.72;2305735;69;20185;-71
2021/08/22 00:38:31;;;;;;;1.69;1.54;;;;;;;17.27;91.38;99348.75;2306003;69;20693;-72
2021/08/22 00:41:33;;;;;;;2.24;1.80;;;;;;;17.24;91.45;99354.13;2306465;69;20684;-70
2021/08/22 00:44:36;;;;;;;3.53;1.90;;;;;;;17.20;91.63;99353.31;2306331;69;20153;-71
2021/08/22 00:47:43;;;;;;;4.13;1.65;;;;;;;17.22;91.83;99348.88;2305087;67;26730;-71
2021/08/22 00:50:46;;;;;;;2.14;1.45;;;;;;;17.26;91.86;99352.28;2306171;69;20145;-71
2021/08/22 00:53:49;;;;;;;1.69;1.59;;;;;;;17.25;91.80;99361.06;2306466;69;20157;-70
2021/08/22 00:56:52;;;;;;;1.95;1.50;;;;;;;17.27;91.86;99362.75;2306257;69;20170;-71
2021/08/22 00:59:57;;;;;;;5.20;1.65;;;;;;;17.33;91.96;99362.53;2304894;69;20591;-70
2021/08/22 01:03:17;;;;;;;4.71;1.94;;;;;;;17.36;92.12;99359.81;2304433;66;20693;-71
2021/08/22 01:06:32;;;;;;;1.96;1.49;;;;;;;17.36;92.13;99362.44;2306169;69;20193;-71
2021/08/22 01:09:39;;;;;;;5.59;1.99;;;;;;;17.34;91.91;99371.25;2311088;69;20141;-70
2021/08/22 01:12:52;;;;;;;5.60;1.69;;;;;;;17.31;91.75;99364.34;2305820;69;20808;-70
2021/08/22 01:15:58;;;;;;;2.05;1.55;;;;;;;17.28;91.93;99358.34;2305141;69;20169;-70
2021/08/22 01:19:13;;;;;;;2.58;1.50;;;;;;;17.24;92.07;99362.84;2305992;67;20956;-71
2021/08/22 01:22:18;;;;;;;2.85;1.65;;;;;;;17.27;92.43;99359.25;2305404;69;21007;-70
2021/08/22 01:25:21;;;;;;;4.32;1.69;;;;;;;17.26;92.59;99362.78;2304942;69;20169;-70
2021/08/22 01:28:24;;;;;;;2.00;1.80;;;;;;;17.25;92.89;99358.44;2305483;69;20180;-71
2021/08/22 01:31:30;;;;;;;5.09;1.70;;;;;;;17.30;92.93;99360.00;2305637;69;20709;-70
2021/08/22 01:34:33;;;;;;;2.90;1.94;;;;;;;17.36;92.79;99361.56;2307004;66;20795;-71
2021/08/22 01:37:38;;;;;;;1.40;1.30;;;;;;;17.41;93.01;99365.75;2305649;69;20596;-71
2021/08/22 01:40:41;;;;;;;3.04;1.55;;;;;;;17.46;93.09;99365.63;2305486;69;20248;-71
2021/08/22 01:43:47;;;;;;;2.92;2.05;;;;;;;17.49;93.10;99363.75;2305986;69;20185;-71
2021/08/22 01:46:53;;;;;;;4.43;1.76;;;;;;;17.52;92.95;99368.91;2304475;67;20621;-71
2021/08/22 01:49:56;;;;;;;3.39;1.61;;;;;;;17.53;92.94;99361.88;2305536;69;20557;-70
2021/08/22 01:53:04;;;;;;;7.24;1.69;;;;;;;17.50;93.10;99368.09;2301643;69;20165;-71
2021/08/22 01:56:07;;;;;;;4.29;1.59;;;;;;;17.49;93.22;99371.63;2305700;69;20153;-71
2021/08/22 01:59:09;;;;;;;2.86;1.56;;;;;;;17.50;93.53;99375.09;2306167;69;20149;-71
2021/08/22 02:02:12;;;;;;;3.79;1.91;;;;;;;17.52;93.57;99374.16;2304863;66;20886;-71
2021/08/22 02:05:16;;;;;;;2.39;1.85;;;;;;;17.53;93.79;99367.13;2306863;69;20182;-71
2021/08/22 02:08:22;;;;;;;2.14;1.81;;;;;;;17.55;93.86;99372.31;2304793;69;20190;-71
2021/08/22 02:11:36;;;;;;;2.20;1.98;;;;;;;17.54;93.92;99374.09;2305161;69;20599;-71
2021/08/22 02:14:49;;;;;;;1.74;1.63;;;;;;;17.55;94.07;99362.69;2305919;69;20160;-71
2021/08/22 02:18:07;;;;;;;4.41;1.83;;;;;;;17.54;93.99;99355.72;2305099;66;22235;-71
2021/08/22 02:21:11;;;;;;;2.75;1.64;;;;;;;17.55;94.10;99357.44;2305697;69;20133;-71
2021/08/22 02:24:14;;;;;;;2.78;1.90;;;;;;;17.56;94.04;99353.03;2306839;69;20153;-71
2021/08/22 02:27:17;;;;;;;5.40;2.10;;;;;;;17.56;94.07;99363.53;2305866;69;20160;-71
2021/08/22 02:30:19;;;;;;;3.10;1.99;;;;;;;17.54;94.07;99366.22;2306112;66;20997;-71
2021/08/22 02:33:22;;;;;;;1.80;1.69;;;;;;;17.54;94.12;99368.84;2306538;69;20650;-73
2021/08/22 02:36:27;;;;;;;3.01;2.10;;;;;;;17.58;94.37;99356.47;2306397;69;20187;-71
2021/08/22 02:39:30;;;;;;;3.41;2.33;;;;;;;17.59;94.55;99356.41;2307196;69;20168;-71
2021/08/22 02:42:33;;;;;;;2.51;2.10;;;;;;;17.62;94.61;99356.34;2306539;69;20198;-72
2021/08/22 02:45:35;;;;;;;2.59;2.39;;;;;;;17.65;94.51;99348.34;2301192;67;23504;-71
2021/08/22 02:48:38;;;;;;;3.26;2.19;;;;;;;17.64;94.57;99354.50;2307131;69;20491;-71
2021/08/22 02:51:40;;;;;;;3.03;2.65;;;;;;;17.67;94.67;99345.66;2305546;69;20152;-71
2021/08/22 02:54:43;;;;;;;4.07;2.79;;;;;;;17.69;94.59;99350.00;2306378;69;20964;-72
2021/08/22 02:57:45;;;;;;;3.33;2.63;;;;;;;17.67;94.55;99343.91;2305613;69;20190;-72
2021/08/22 03:00:48;;;;;;;5.94;2.92;;;;;;;17.64;94.78;99346.63;2305995;66;20795;-71
2021/08/22 03:03:51;;;;;;;2.70;2.44;;;;;;;17.65;94.65;99347.50;2303600;69;20160;-71
2021/08/22 03:06:54;;;;;;;4.09;2.96;;;;;;;17.64;94.71;99344.00;2303242;69;20149;-73
2021/08/22 03:09:57;;;;;;;3.39;2.78;;;;;;;17.63;94.81;99347.53;2307869;69;20206;-73
2021/08/22 03:12:59;;;;;;;3.51;2.67;;;;;;;17.63;95.03;99344.06;2304057;69;20145;-72
2021/08/22 03:16:02;;;;;;;3.89;2.58;;;;;;;17.65;95.07;99342.25;2302637;66;20707;-71
2021/08/22 03:19:05;;;;;;;3.88;2.46;;;;;;;17.69;94.92;99341.25;2302249;69;20218;-72
2021/08/22 03:22:07;;;;;;;4.35;2.65;;;;;;;17.71;94.81;99336.81;2304185;69;20185;-72
2021/08/22 03:25:12;;;;;;;3.36;2.47;;;;;;;17.69;94.75;99336.84;2305576;69;20259;-71
2021/08/22 03:28:14;;;;;;;4.14;2.75;;;;;;;17.68;94.84;99344.78;2305439;69;20197;-72
2021/08/22 03:31:17;;;;;;;3.85;2.65;;;;;;;17.69;94.76;99346.50;2302444;66;21487;-72
2021/08/22 03:34:20;;;;;;;3.60;3.04;;;;;;;17.66;94.84;99338.69;2306279;69;20158;-72
2021/08/22 03:37:23;;;;;;;6.00;3.36;;;;;;;17.65;94.94;99345.72;2306346;69;20222;-72
2021/08/22 03:40:26;;;;;;;4.82;2.63;;;;;;;17.65;94.95;99340.47;2306964;69;20190;-71
2021/08/22 03:43:28;;;;;;;4.13;3.00;;;;;;;17.67;94.81;99345.66;2307318;69;20169;-72
2021/08/22 03:46:31;;;;;;;3.54;2.71;;;;;;;17.66;94.77;99347.44;2305991;67;22644;-72
2021/08/22 03:49:34;;;;;;;3.65;2.80;;;;;;;17.69;94.87;99354.38;2306357;69;20184;-72
2021/08/22 03:52:37;;;;;;;4.38;3.09;;;;;;;17.67;94.81;99351.78;2305787;69;20481;-72
2021/08/22 03:55:40;;;;;;;3.85;3.01;;;;;;;17.67;94.94;99354.41;2304850;69;20161;-72
2021/08/22 03:58:43;;;;;;;4.10;2.76;;;;;;;17.70;94.90;99350.84;2305820;69;20161;-72
2021/08/22 04:01:45;;;;;;;3.45;2.80;;;;;;;17.71;94.95;99356.03;2305678;66;20425;-72
2021/08/22 04:04:49;;;;;;;4.35;3.13;;;;;;;17.71;94.99;99345.53;2310137;69;20215;-72
2021/08/22 04:07:55;;;;;;;6.04;3.11;;;;;;;17.70;95.02;99350.84;2306637;69;20230;-72
2021/08/22 04:10:57;;;;;;;5.39;2.75;;;;;;;17.69;94.94;99349.13;2306201;69;20169;-72
2021/08/22 04:14:01;;;;;;;3.97;3.16;;;;;;;17.67;94.97;99348.28;2306913;69;20162;-72
2021/08/22 04:17:04;;;;;;;4.32;3.00;;;;;;;17.64;94.95;99353.66;2305118;66;20907;-74
2021/08/22 04:20:07;;;;;;;4.38;3.03;;;;;;;17.61;94.97;99349.38;2304950;69;20190;-72
2021/08/22 04:23:11;;;;;;;4.69;3.06;;;;;;;17.58;95.35;99346.81;2306374;69;20194;-71
2021/08/22 04:26:13;;;;;;;6.04;3.59;;;;;;;17.54;95.61;99353.09;2306532;69;20509;-72
2021/08/22 04:29:16;;;;;;;5.69;3.65;;;;;;;17.55;95.86;99357.44;2305927;69;20183;-72
2021/08/22 04:32:21;;;;;;;4.72;3.54;;;;;;;17.55;96.07;99362.69;2304618;66;21488;-72
2021/08/22 04:35:24;;;;;;;3.70;3.40;;;;;;;17.53;96.24;99368.00;2300337;69;20245;-72
2021/08/22 04:38:27;;;;;;;4.03;3.09;;;;;;;17.53;96.18;99370.63;2307053;69;20215;-72
2021/08/22 04:41:29;;;;;;;4.20;3.80;;;;;;;17.53;96.13;99381.13;2305068;69;20186;-72
2021/08/22 04:44:32;;;;;;;5.24;3.36;;;;;;;17.52;96.25;99382.03;2305386;69;20586;-72
2021/08/22 04:47:35;;;;;;;4.99;3.34;;;;;;;17.52;96.34;99384.66;2305421;67;20157;-72
2021/08/22 04:50:37;;;;;;;6.31;3.41;;;;;;;17.53;96.33;99386.38;2305652;69;20161;-72
2021/08/22 04:53:40;;;;;;;5.60;3.71;;;;;;;17.53;96.21;99390.75;2306281;69;20169;-72
2021/08/22 04:56:42;;;;;;;5.78;3.96;;;;;;;17.52;96.23;99397.78;2306276;69;20190;-71
2021/08/22 04:59:45;;;;;;;4.26;3.54;;;;;;;17.53;96.26;99393.38;2307171;69;20676;-72
2021/08/22 05:02:48;;;;;;;5.05;3.79;;;;;;;17.55;96.21;99391.56;2306602;66;21111;-72
2021/08/22 05:05:52;;;;;;;3.96;3.66;;;;;;;17.55;95.96;99391.56;2306445;69;20604;-71
2021/08/22 05:08:54;;;;;;;5.66;3.69;;;;;;;17.58;96.01;99391.47;2306369;69;20165;-72
2021/08/22 05:11:58;;;;;;;5.41;3.40;;;;;;;17.64;95.84;99395.66;2304928;69;20160;-73
2021/08/22 05:15:01;;;;;;;3.47;2.96;;;;;;;17.67;95.76;99390.31;2305970;69;20639;-71
2021/08/22 05:18:04;;;;;;;4.25;3.49;;;;;;;17.66;95.83;99394.72;2305866;67;21148;-71
2021/08/22 05:21:06;;;;;;;5.21;3.26;;;;;;;17.69;95.79;99399.03;2306057;69;20169;-72
2021/08/22 05:24:08;;;;;;;4.90;3.56;;;;;;;17.71;95.57;99389.31;2307542;69;20165;-72
2021/08/22 05:27:11;;;;;;;3.76;3.35;;;;;;;17.75;95.41;99391.78;2305750;69;20296;-72
2021/08/22 05:30:14;;;;;;;6.41;3.47;;;;;;;17.77;95.21;99399.63;2305969;69;20161;-72
2021/08/22 05:33:16;;;;;;;4.00;3.25;;;;;;;17.79;95.14;99401.31;2302329;69;20199;-71
2021/08/22 05:36:22;;;;;;;3.47;3.13;;;;;;;17.81;95.11;99404.75;2303975;69;20661;-72
2021/08/22 05:39:24;;;;;;;7.32;3.44;;;;;;;17.83;95.20;99404.69;2304001;69;20194;-72
2021/08/22 05:42:27;;;;;;;3.91;3.40;;;;;;;17.87;95.34;99403.66;2302617;69;20195;-72
2021/08/22 05:45:29;;;;;;;7.16;3.80;;;;;;;17.93;95.39;99415.72;2302683;66;21283;-71
2021/08/22 05:48:33;;;;;;;4.10;3.79;;;;;;;17.96;95.38;99413.88;2302792;69;20331;-72
2021/08/22 05:51:35;;;;;;;5.94;4.45;;;;;;;18.02;95.16;99421.53;2303045;69;20175;-72
2021/08/22 05:54:38;;;;;;;4.05;3.51;;;;;;;18.06;95.12;99427.53;2303683;69;20145;-73
2021/08/22 05:57:41;;;;;;;4.40;3.69;;;;;;;18.11;94.83;99442.22;2303577;69;20206;-72
2021/08/22 06:00:43;;;;;;;5.80;3.70;;;;;;;18.11;94.66;99426.47;2302443;66;20180;-72
2021/08/22 06:03:46;;;;;;;5.05;3.86;;;;;;;18.15;94.74;99427.25;2304299;69;20162;-72
2021/08/22 06:06:49;;;;;;;4.84;3.85;;;;;;;18.17;94.58;99432.44;2304954;69;20176;-72
2021/08/22 06:09:52;;;;;;;6.34;4.32;;;;;;;18.18;94.64;99428.91;2304306;69;20170;-72
2021/08/22 06:12:54;;;;;;;4.57;3.97;;;;;;;18.20;94.63;99430.56;2304074;69;20149;-72
2021/08/22 06:15:57;;;;;;;4.85;4.10;;;;;;;18.23;94.54;99437.47;2302516;66;21309;-72
2021/08/22 06:19:00;;;;;;;4.72;3.75;;;;;;;18.27;94.53;99442.56;2303139;69;21092;-72
2021/08/22 06:22:04;;;;;;;4.64;3.91;;;;;;;18.29;94.44;99440.72;2302639;69;20149;-73
2021/08/22 06:25:07;;;;;;;6.88;3.54;;;;;;;18.30;94.33;99442.44;2303398;69;20171;-72
2021/08/22 06:28:10;;;;;;;4.51;4.21;;;;;;;18.29;94.36;99442.50;2303658;69;20208;-72
2021/08/22 06:31:12;;;;;;;4.86;4.14;;;;;;;18.30;94.63;99446.84;2302710;66;20202;-72
2021/08/22 06:34:15;;;;;;;5.16;4.66;;;;;;;18.31;94.57;99445.94;2303315;69;20190;-72
2021/08/22 06:37:18;;;;;;;5.64;4.15;;;;;;;18.31;94.65;99446.81;2304385;69;20259;-72
2021/08/22 06:40:20;;;;;;;8.48;5.39;;;;;;;18.36;94.67;99439.63;2302545;69;20187;-72
2021/08/22 06:43:23;;;;;;;4.90;3.74;;;;;;;18.43;94.75;99448.16;2304036;69;20165;-72
2021/08/22 06:46:25;;;;;;;5.50;4.30;;;;;;;18.53;94.64;99452.19;2301344;66;20256;-72
2021/08/22 06:49:28;;;;;;;9.09;4.46;;;;;;;18.61;94.08;99451.88;2304261;69;20173;-72
2021/08/22 06:52:31;;;;;;;5.18;4.07;;;;;;;18.64;93.65;99451.81;2304351;69;20188;-73
2021/08/22 06:55:34;;;;;;;5.79;4.15;;;;;;;18.63;93.27;99445.69;2304991;69;20169;-72
2021/08/22 06:58:36;;;;;;;5.20;4.68;;;;;;;18.61;92.80;99447.47;2306203;69;20196;-72
2021/08/22 07:01:39;;;;;;;6.38;4.39;;;;;;;18.66;92.70;99445.56;2305055;66;21036;-72
2021/08/22 07:04:41;;;;;;;4.66;4.22;;;;;;;18.71;92.79;99445.44;2305193;69;20198;-74
2021/08/22 07:07:44;;;;;;;4.89;4.49;;;;;;;18.77;92.62;99445.19;2305921;69;20190;-73
2021/08/22 07:10:46;;;;;;;4.84;4.34;;;;;;;18.84;92.39;99448.44;2306672;69;20167;-72
2021/08/22 07:13:49;;;;;;;8.86;4.32;;;;;;;18.93;92.11;99453.38;2310133;69;20179;-73
2021/08/22 07:16:52;;;;;;;5.29;4.53;;;;;;;19.02;92.12;99453.00;2314861;66;20192;-80
2021/08/22 07:19:55;;;;;;;4.85;4.45;;;;;;;19.11;91.95;99446.56;2315097;69;20145;-82
2021/08/22 07:22:57;;;;;;;5.53;5.13;;;;;;;19.17;91.03;99455.06;2316794;69;20157;-81
2021/08/22 07:26:00;;;;;;;5.44;4.54;;;;;;;19.22;89.96;99449.66;2313900;69;20163;-84
2021/08/22 07:29:03;;;;;;;4.86;4.31;;;;;;;19.26;89.88;99462.63;2326160;69;20149;-84
2021/08/22 07:32:06;;;;;;;4.70;4.40;;;;;;;19.28;89.31;99463.41;2318169;66;21053;-84
2021/08/22 07:35:09;;;;;;;5.13;4.72;;;;;;;19.32;89.24;99461.53;2317893;69;20170;-83
2021/08/22 07:38:12;;;;;;;4.85;4.40;;;;;;;19.36;89.44;99457.84;2316432;69;20249;-82
2021/08/22 07:41:14;;;;;;;5.11;4.13;;;;;;;19.38;88.83;99449.88;2315858;69;20144;-83
2021/08/22 07:44:17;;;;;;;6.10;4.06;;;;;;;19.41;88.79;99449.78;2316418;69;20230;-81
2021/08/22 07:47:19;;;;;;;4.44;3.94;;;;;;;19.41;88.33;99448.00;2314249;66;24561;-80
2021/08/22 07:50:26;;;;;;;4.85;3.80;;;;;;;19.41;87.76;99441.88;2314120;69;20169;-80
2021/08/22 07:53:29;;;;;;;4.47;4.03;;;;;;;19.45;88.01;99448.75;2321127;69;20234;-82
2021/08/22 07:56:31;;;;;;;5.75;4.26;;;;;;;19.44;87.86;99447.88;2313566;69;20184;-73
2021/08/22 07:59:34;;;;;;;3.64;3.44;;;;;;;19.48;87.54;99449.47;2311520;69;20156;-82
2021/08/22 08:02:37;;;;;;;3.94;3.65;;;;;;;19.48;86.86;99456.50;2312996;66;20632;-81
2021/08/22 08:05:40;;;;;;;4.55;3.34;;;;;;;19.53;87.01;99452.75;2304754;69;20920;-73
2021/08/22 08:08:43;;;;;;;3.42;3.06;;;;;;;19.63;87.57;99458.56;2304296;69;20186;-73
2021/08/22 08:11:45;;;;;;;4.43;3.45;;;;;;;19.71;86.79;99459.09;2303895;69;20145;-74
2021/08/22 08:14:48;;;;;;;3.36;3.14;;;;;;;19.76;86.08;99457.16;2304274;69;20187;-74
2021/08/22 08:17:51;;;;;;;3.70;3.21;;;;;;;19.75;85.74;99449.28;2304900;66;21382;-74
2021/08/22 08:20:53;;;;;;;4.25;3.30;;;;;;;19.75;85.47;99455.44;2304396;69;20145;-73
2021/08/22 08:23:56;;;;;;;3.29;3.00;;;;;;;19.74;85.67;99458.13;2304942;69;20258;-73
2021/08/22 08:26:59;;;;;;;4.18;2.70;;;;;;;19.68;84.73;99461.00;2304487;69;20643;-74
2021/08/22 08:30:02;;;;;;;4.81;2.80;;;;;;;19.67;85.03;99459.31;2306180;69;20177;-80
2021/08/22 08:33:04;;;;;;;3.33;2.72;;;;;;;19.67;84.72;99461.94;2308759;66;22203;-79
2021/08/22 08:36:07;;;;;;;3.28;2.70;;;;;;;19.58;84.37;99471.94;2311696;69;20181;-80
2021/08/22 08:39:10;;;;;;;4.21;2.90;;;;;;;19.58;84.74;99476.34;2311759;69;20149;-80
2021/08/22 08:42:15;;;;;;;4.18;3.09;;;;;;;19.60;84.87;99474.50;2309517;69;20186;-79
2021/08/22 08:45:21;;;;;;;2.83;2.63;;;;;;;19.60;83.96;99479.78;2311264;69;20174;-79
2021/08/22 08:48:51;;;;;;;2.95;2.69;;;;;;;19.62;83.70;99483.22;2309920;69;20161;-79
2021/08/22 08:52:35;;;;;;;4.28;2.28;;;;;;;19.72;83.84;99478.41;2307202;69;20267;-79
2021/08/22 08:55:48;;;;;;;2.47;2.28;;;;;;;19.80;83.57;99473.69;2302055;69;20168;-80
2021/08/22 08:58:51;;;;;;;2.88;2.66;;;;;;;19.90;83.68;99475.03;2308984;69;20199;-79
2021/08/22 09:01:56;;;;;;;3.70;2.08;;;;;;;19.94;82.86;99473.16;2311694;69;20609;-81
2021/08/22 09:04:58;;;;;;;2.94;1.92;;;;;;;19.94;82.06;99466.09;2310395;69;20149;-79
2021/08/22 09:08:23;;;;;;;2.21;2.11;;;;;;;19.97;82.23;99470.38;2310937;69;20250;-80
2021/08/22 09:11:44;;;;;;;2.49;2.04;;;;;;;19.94;81.25;99471.38;2308867;69;20562;-80
2021/08/22 09:15:20;;;;;;;2.40;2.19;;;;;;;19.98;81.32;99469.44;2309412;69;20892;-80
2021/08/22 09:19:00;;;;;;;1.96;1.80;;;;;;;19.97;80.71;99473.00;2308176;69;20184;-79
2021/08/22 09:22:40;;;;;;;3.39;1.77;;;;;;;19.96;80.87;99473.94;2309365;69;20156;-80
2021/08/22 09:26:20;;;;;;;2.20;2.00;;;;;;;19.99;81.13;99473.81;2309707;69;20384;-79
2021/08/22 09:30:00;;;;;;;3.49;2.13;;;;;;;20.11;81.46;99470.66;2310893;69;20180;-80
2021/08/22 09:33:25;;;;;;;1.58;1.48;;;;;;;20.15;80.62;99478.38;2309325;66;21528;-79
2021/08/22 09:36:30;;;;;;;1.95;1.63;;;;;;;20.19;79.92;99474.69;2309666;69;20211;-82
2021/08/22 09:39:36;;;;;;;2.90;1.80;;;;;;;20.25;80.56;99475.34;2312620;69;20145;-80
2021/08/22 09:42:57;;;;;;;1.99;1.89;;;;;;;20.17;79.17;99483.59;2309947;69;20625;-80
2021/08/22 09:46:37;;;;;;;2.09;1.75;;;;;;;20.19;79.17;99490.50;2308766;69;20145;-80
2021/08/22 09:50:22;;;;;;;2.81;1.63;;;;;;;20.21;79.58;99486.00;2310515;69;20157;-80
2021/08/22 09:53:50;;;;;;;1.51;1.41;;;;;;;20.22;80.07;99482.47;2311671;69;20165;-80
2021/08/22 09:57:17;;;;;;;2.63;1.67;;;;;;;20.33;80.12;99473.25;2310338;69;21005;-79
2021/08/22 10:00:55;;;;;;;2.03;1.70;;;;;;;20.32;78.78;99477.66;2304537;67;24723;-79
2021/08/22 10:04:09;;;;;;;2.19;1.99;;;;;;;20.35;78.77;99479.31;2289818;69;20149;-80
2021/08/22 10:07:39;;;;;;;2.65;1.75;;;;;;;20.31;78.73;99473.31;2314005;69;20152;-80
2021/08/22 10:10:49;;;;;;;2.11;1.91;;;;;;;20.16;77.41;99474.81;2311595;69;20149;-80
2021/08/22 10:13:52;;;;;;;2.13;1.81;;;;;;;20.02;77.99;99471.88;2311253;69;20152;-80
2021/08/22 10:17:16;;;;;;;1.96;1.60;;;;;;;20.04;79.08;99477.09;2307554;67;20267;-79
2021/08/22 10:20:19;;;;;;;3.03;1.96;;;;;;;20.05;80.31;99477.03;2308605;69;20157;-79
2021/08/22 10:23:43;;;;;;;2.60;1.80;;;;;;;20.06;80.07;99481.38;2310589;69;20657;-80
2021/08/22 10:26:56;;;;;;;1.79;1.69;;;;;;;20.09;79.24;99468.06;2309938;69;20200;-80
2021/08/22 10:30:02;;;;;;;2.40;1.70;;;;;;;20.16;78.54;99466.91;2308084;69;20214;-79
2021/08/22 10:33:05;;;;;;;1.56;1.45;;;;;;;20.30;79.39;99466.31;2308636;66;23097;-80
2021/08/22 10:36:29;;;;;;;2.84;1.64;;;;;;;20.42;79.64;99465.81;2309964;69;20153;-81
2021/08/22 10:39:31;;;;;;;2.11;1.79;;;;;;;20.50;77.25;99463.72;2311376;69;20462;-80
2021/08/22 10:42:34;;;;;;;1.80;1.70;;;;;;;20.54;77.23;99456.50;2310983;69;20182;-81
2021/08/22 10:45:40;;;;;;;1.89;1.76;;;;;;;20.45;76.84;99460.38;2311230;67;37847;-78
2021/08/22 10:48:42;;;;;;;1.96;1.56;;;;;;;20.39;78.28;99459.78;2308536;69;20210;-79
2021/08/22 10:52:20;;;;;;;1.86;1.70;;;;;;;20.25;78.76;99464.78;2303342;69;20170;-78
2021/08/22 10:55:27;;;;;;;3.66;1.91;;;;;;;20.09;79.09;99468.06;2306019;69;20161;-84
2021/08/22 11:02:11;;;;;;;2.61;1.74;;;;;;;19.72;79.62;99462.59;2306111;69;20249;-81
2021/08/22 11:05:16;;;;;;;2.63;1.60;;;;;;;19.41;80.01;99470.84;2312964;69;20160;-82
2021/08/22 11:08:20;;;;;;;1.75;1.45;;;;;;;19.21;81.13;99466.31;2314781;69;20354;-82
2021/08/22 11:11:23;;;;;;;3.01;1.56;;;;;;;18.93;80.32;99474.44;2311684;69;20141;-82
2021/08/22 11:14:25;;;;;;;1.80;1.51;;;;;;;18.75;81.43;99464.56;2314701;69;20177;-83
2021/08/22 11:17:28;;;;;;;4.40;1.49;;;;;;;18.62;82.68;99457.09;2315746;67;20145;-81
2021/08/22 11:20:32;;;;;;;2.36;1.40;;;;;;;18.61;83.94;99465.91;2312957;69;20172;-79
2021/08/22 11:23:34;;;;;;;3.59;1.58;;;;;;;18.67;84.66;99459.56;2312153;69;20334;-81
2021/08/22 11:26:37;;;;;;;2.38;1.36;;;;;;;18.76;85.58;99468.94;2309824;69;20175;-80
2021/08/22 11:30:02;;;;;;;4.16;1.46;;;;;;;18.80;85.75;99463.50;2309264;69;20166;-79
2021/08/22 11:33:06;;;;;;;2.11;1.46;;;;;;;19.00;86.19;99468.88;2307076;67;20161;-79
2021/08/22 11:36:09;;;;;;;1.56;1.26;;;;;;;19.38;85.68;99465.69;2305887;69;20378;-79
2021/08/22 11:39:19;;;;;;;1.41;1.30;;;;;;;19.77;85.12;99461.50;2308703;69;20148;-78
2021/08/22 11:42:22;;;;;;;1.52;1.26;;;;;;;20.05;83.78;99460.34;2306907;69;20141;-78
2021/08/22 11:45:26;;;;;;;2.99;1.54;;;;;;;20.28;82.64;99454.97;2305548;67;22497;-78
2021/08/22 11:48:30;;;;;;;4.72;1.64;;;;;;;20.50;81.47;99449.66;2305747;69;20586;-78
2021/08/22 11:51:33;;;;;;;1.76;1.30;;;;;;;20.76;81.03;99453.75;2303073;69;20201;-78
2021/08/22 11:54:35;;;;;;;2.55;1.42;;;;;;;20.89;78.61;99448.81;2309111;69;20153;-78
2021/08/22 11:57:38;;;;;;;2.60;1.75;;;;;;;21.16;79.58;99433.44;2304158;69;20242;-79
2021/08/22 12:00:55;;;;;;;2.08;1.42;;;;;;;21.42;78.89;99438.41;2308576;67;24524;-79
2021/08/22 12:04:02;;;;;;;1.99;1.40;;;;;;;21.77;77.65;99431.41;2313138;69;20153;-80
2021/08/22 12:07:05;;;;;;;4.81;1.35;;;;;;;21.68;74.35;99430.06;2311285;69;20168;-81
2021/08/22 12:10:08;;;;;;;2.46;1.30;;;;;;;21.58;74.91;99430.59;2315444;69;20315;-81
2021/08/22 12:13:14;;;;;;;1.90;1.40;;;;;;;21.66;74.04;99436.34;2315953;69;20137;-80
2021/08/22 12:16:33;;;;;;;1.83;1.38;;;;;;;21.65;74.79;99435.50;2315860;66;20238;-80
2021/08/22 12:19:36;;;;;;;2.80;1.46;;;;;;;21.56;73.03;99427.19;2315733;69;20432;-80
2021/08/22 12:22:38;;;;;;;2.78;1.38;;;;;;;21.49;73.44;99423.97;2310020;69;20178;-79
2021/08/22 12:25:42;;;;;;;2.86;1.20;;;;;;;21.42;72.57;99433.13;2311391;69;20164;-79
2021/08/22 12:28:46;;;;;;;1.35;1.09;;;;;;;21.34;73.69;99424.69;2311633;69;20141;-82
2021/08/22 12:31:52;;;;;;;1.75;1.16;;;;;;;21.31;74.25;99444.19;2311811;66;21140;-79
2021/08/22 12:35:08;;;;;;;1.69;1.00;;;;;;;21.13;71.14;99437.09;2315049;69;20659;-80
2021/08/22 12:38:11;;;;;;;2.67;1.20;;;;;;;20.99;72.53;99436.88;2311751;69;20200;-79
2021/08/22 12:41:29;;;;;;;1.66;1.14;;;;;;;20.79;73.71;99443.06;2310898;69;20526;-80
2021/08/22 12:44:34;;;;;;;3.51;1.21;;;;;;;20.64;75.19;99446.38;2309976;69;20205;-79
2021/08/22 12:47:36;;;;;;;1.44;1.24;;;;;;;20.35;74.31;99445.88;2308890;66;20935;-78
2021/08/22 12:50:39;;;;;;;5.01;1.71;;;;;;;20.20;75.14;99449.16;2308338;69;20174;-77
2021/08/22 12:53:41;;;;;;;2.83;1.54;;;;;;;20.06;75.92;99447.09;2308011;69;20206;-77
2021/08/22 12:56:44;;;;;;;1.91;1.30;;;;;;;20.04;77.07;99445.47;2307832;69;20153;-77
2021/08/22 12:59:47;;;;;;;2.15;1.38;;;;;;;20.07;77.16;99442.69;2309288;69;20141;-77
2021/08/22 13:02:50;;;;;;;2.08;1.45;;;;;;;20.12;78.27;99446.00;2306730;66;20152;-77
2021/08/22 13:05:53;;;;;;;2.29;1.30;;;;;;;20.19;77.96;99440.41;2307681;69;20186;-77
2021/08/22 13:08:56;;;;;;;2.33;1.40;;;;;;;20.42;78.23;99431.50;2307361;69;20567;-77
2021/08/22 13:11:58;;;;;;;2.11;1.26;;;;;;;20.65;76.72;99442.84;2306744;69;20189;-78
2021/08/22 13:15:02;;;;;;;2.46;1.44;;;;;;;20.90;75.67;99430.25;2309481;69;20169;-77
2021/08/22 13:18:05;;;;;;;6.04;1.48;;;;;;;21.29;74.75;99435.47;2308281;66;20450;-78
2021/08/22 13:21:09;;;;;;;1.92;1.39;;;;;;;21.75;74.08;99429.78;2308567;69;20687;-76
2021/08/22 13:24:12;;;;;;;3.03;1.31;;;;;;;22.15;72.27;99428.66;2304400;69;20153;-77
2021/08/22 13:27:14;;;;;;;1.66;1.40;;;;;;;22.11;69.42;99424.47;2308666;69;20252;-81
2021/08/22 13:30:17;;;;;;;2.90;1.59;;;;;;;21.92;69.00;99435.06;2307632;69;20527;-77
2021/08/22 13:33:20;;;;;;;1.54;1.24;;;;;;;21.97;69.56;99425.13;2307230;67;20208;-77
2021/08/22 13:36:24;;;;;;;2.81;1.45;;;;;;;22.20;68.05;99424.81;2305993;69;20207;-78
2021/08/22 13:39:27;;;;;;;1.99;1.34;;;;;;;22.39;68.31;99422.06;2307013;69;20153;-78
2021/08/22 13:42:30;;;;;;;2.88;1.76;;;;;;;22.67;68.23;99424.13;2307488;69;20170;-77
2021/08/22 13:45:32;;;;;;;1.73;1.44;;;;;;;22.57;66.93;99431.69;2305477;69;22122;-77
2021/08/22 13:48:36;;;;;;;3.24;1.51;;;;;;;22.38;66.34;99417.72;2305278;69;20179;-77
2021/08/22 13:51:39;;;;;;;1.75;1.40;;;;;;;21.92;65.00;99425.34;2305749;69;20149;-78
2021/08/22 13:54:41;;;;;;;1.64;1.31;;;;;;;21.59;66.08;99430.53;2308170;69;20185;-77
2021/08/22 13:57:44;;;;;;;2.00;1.39;;;;;;;21.54;68.11;99429.00;2306390;69;20174;-78
2021/08/22 14:00:47;;;;;;;2.33;1.30;;;;;;;21.77;68.76;99438.47;2308837;67;23355;-78
2021/08/22 14:03:50;;;;;;;1.44;1.29;;;;;;;21.88;66.46;99434.34;2307318;69;20224;-78
2021/08/22 14:06:52;;;;;;;3.63;1.40;;;;;;;22.09;66.77;99421.91;2308646;69;20558;-79
2021/08/22 14:09:55;;;;;;;1.85;1.21;;;;;;;22.39;65.07;99415.94;2310258;69;20186;-79
2021/08/22 14:12:57;;;;;;;1.45;1.30;;;;;;;22.45;63.37;99424.44;2308214;69;20214;-79
2021/08/22 14:16:00;;;;;;;2.05;1.20;;;;;;;22.60;62.87;99414.78;2307345;67;26497;-80
2021/08/22 14:19:03;;;;;;;4.30;1.30;;;;;;;22.80;61.95;99426.97;2308317;69;20690;-80
2021/08/22 14:22:05;;;;;;;2.31;1.20;;;;;;;22.77;58.70;99427.97;2308586;69;20267;-79
2021/08/22 14:25:08;;;;;;;1.89;1.25;;;;;;;22.61;58.39;99433.25;2309653;69;20169;-81
2021/08/22 14:28:11;;;;;;;2.06;1.30;;;;;;;22.57;59.43;99430.84;2310479;69;20170;-81
2021/08/22 14:31:13;;;;;;;1.95;1.14;;;;;;;22.52;57.13;99438.19;2310656;67;21873;-80
2021/08/22 14:34:19;;;;;;;2.22;1.11;;;;;;;22.52;57.52;99439.03;2309470;69;20803;-80
2021/08/22 14:37:22;;;;;;;1.77;1.10;;;;;;;22.39;56.02;99439.75;2303324;69;20153;-79
2021/08/22 14:40:28;;;;;;;2.22;1.08;;;;;;;22.46;57.39;99434.06;2306342;69;20244;-79